Limestone, Arkansas
Current Conditions -  °F | °C
As of 2:53 PM on Sunday 23 Nov 2014 (Local Time) from KHRO Reporting Station
Overcast Overcast  
Wind Chill: 62°   Ceiling: 2700
Heat Index: 62°   Visibility: 10mi
Dew Point: 56°   Wind: 6mph
Humidity: 80%   Direction: 170°S
Pressure: 29.33"   Gusts: NA
Location:  35.8413°N, 93.3507°W
Report Text: KHRO 232053Z AUTO 17005KT 10SM BKN027 OVC032 17/13 A2933 RMK AO2 SLP922 T01670133 56038
Loading
Personal Weather Stations






























Interactive Weather Map New forecast layout! Learn more

10-Day Weather Forecast

Advertisements
Track Severe Weather on mobile